sensor_id;sensor_type;location;lat;lon;timestamp;temperature;humidity
6468;DHT22;3267;48.794;9.928;2023-02-20T05:14:46;10.70;99.90
6468;DHT22;3267;48.794;9.928;2023-02-20T05:27:13;10.60;99.90
6468;DHT22;3267;48.794;9.928;2023-02-20T05:59:00;10.20;99.90
6468;DHT22;3267;48.794;9.928;2023-02-20T06:01:28;10.20;99.90
6468;DHT22;3267;48.794;9.928;2023-02-20T08:30:19;11.40;99.90
6468;DHT22;3267;48.794;9.928;2023-02-20T08:54:45;12.10;99.90
6468;DHT22;3267;48.794;9.928;2023-02-20T09:33:44;13.30;97.30
6468;DHT22;3267;48.794;9.928;2023-02-20T09:36:10;13.30;96.30
6468;DHT22;3267;48.794;9.928;2023-02-20T09:38:36;13.40;97.70
6468;DHT22;3267;48.794;9.928;2023-02-20T09:41:02;13.50;97.10
6468;DHT22;3267;48.794;9.928;2023-02-20T09:44:06;13.80;97.60
6468;DHT22;3267;48.794;9.928;2023-02-20T09:46:33;13.30;97.20
6468;DHT22;3267;48.794;9.928;2023-02-20T09:49:17;13.60;96.50
6468;DHT22;3267;48.794;9.928;2023-02-20T09:51:49;13.60;96.90
6468;DHT22;3267;48.794;9.928;2023-02-20T09:54:23;13.70;97.30
6468;DHT22;3267;48.794;9.928;2023-02-20T09:56:54;13.60;97.10
6468;DHT22;3267;48.794;9.928;2023-02-20T09:59:26;13.70;97.50
6468;DHT22;3267;48.794;9.928;2023-02-20T10:01:59;13.70;97.20
6468;DHT22;3267;48.794;9.928;2023-02-20T10:07:25;13.90;97.60
6468;DHT22;3267;48.794;9.928;2023-02-20T10:09:52;14.00;97.00
6468;DHT22;3267;48.794;9.928;2023-02-20T10:12:37;14.00;97.50
6468;DHT22;3267;48.794;9.928;2023-02-20T10:17:42;14.50;98.00
6468;DHT22;3267;48.794;9.928;2023-02-20T10:20:21;14.00;99.40
6468;DHT22;3267;48.794;9.928;2023-02-20T10:22:57;14.20;99.00
6468;DHT22;3267;48.794;9.928;2023-02-20T10:25:34;14.30;97.90
6468;DHT22;3267;48.794;9.928;2023-02-20T10:28:15;14.40;98.50
6468;DHT22;3267;48.794;9.928;2023-02-20T10:33:32;14.50;97.70
6468;DHT22;3267;48.794;9.928;2023-02-20T10:36:15;14.90;99.90
6468;DHT22;3267;48.794;9.928;2023-02-20T10:39:08;14.70;99.90
6468;DHT22;3267;48.794;9.928;2023-02-20T10:41:42;14.80;99.60
6468;DHT22;3267;48.794;9.928;2023-02-20T10:44:18;15.60;99.00
6468;DHT22;3267;48.794;9.928;2023-02-20T10:49:21;17.40;99.90
6468;DHT22;3267;48.794;9.928;2023-02-20T10:51:51;15.20;99.90
6468;DHT22;3267;48.794;9.928;2023-02-20T10:54:28;15.30;99.90
6468;DHT22;3267;48.794;9.928;2023-02-20T10:56:59;17.60;98.40
6468;DHT22;3267;48.794;9.928;2023-02-20T11:02:16;15.70;99.90
6468;DHT22;3267;48.794;9.928;2023-02-20T11:04:49;16.30;99.90
6468;DHT22;3267;48.794;9.928;2023-02-20T11:07:16;19.20;99.90
6468;DHT22;3267;48.794;9.928;2023-02-20T11:09:43;16.30;99.90
6468;DHT22;3267;48.794;9.928;2023-02-20T11:12:36;16.30;99.90
6468;DHT22;3267;48.794;9.928;2023-02-20T11:15:11;16.50;99.90
6468;DHT22;3267;48.794;9.928;2023-02-20T11:17:39;16.40;99.90
6468;DHT22;3267;48.794;9.928;2023-02-20T11:20:05;16.60;99.90
6468;DHT22;3267;48.794;9.928;2023-02-20T11:22:42;16.80;99.90
6468;DHT22;3267;48.794;9.928;2023-02-20T11:25:18;17.00;99.90
6468;DHT22;3267;48.794;9.928;2023-02-20T11:27:49;17.20;99.90
6468;DHT22;3267;48.794;9.928;2023-02-20T11:30:33;17.10;99.90
6468;DHT22;3267;48.794;9.928;2023-02-20T11:33:05;17.10;99.90
6468;DHT22;3267;48.794;9.928;2023-02-20T11:35:41;17.00;99.90
6468;DHT22;3267;48.794;9.928;2023-02-20T11:43:22;19.00;99.90
6468;DHT22;3267;48.794;9.928;2023-02-20T11:45:49;18.50;99.90
6468;DHT22;3267;48.794;9.928;2023-02-20T11:48:19;17.50;99.90
6468;DHT22;3267;48.794;9.928;2023-02-20T11:50:50;17.40;99.90
6468;DHT22;3267;48.794;9.928;2023-02-20T11:53:21;18.20;99.90
6468;DHT22;3267;48.794;9.928;2023-02-20T11:55:49;17.40;99.90
6468;DHT22;3267;48.794;9.928;2023-02-20T11:58:30;17.30;99.90
6468;DHT22;3267;48.794;9.928;2023-02-20T12:00:56;17.80;99.90
6468;DHT22;3267;48.794;9.928;2023-02-20T12:05:47;19.20;99.90
6468;DHT22;3267;48.794;9.928;2023-02-20T12:08:46;17.20;98.70
6468;DHT22;3267;48.794;9.928;2023-02-20T12:11:18;17.20;99.30
6468;DHT22;3267;48.794;9.928;2023-02-20T12:13:46;17.20;97.30
6468;DHT22;3267;48.794;9.928;2023-02-20T12:19:28;17.20;97.90
6468;DHT22;3267;48.794;9.928;2023-02-20T12:22:23;17.20;97.00
6468;DHT22;3267;48.794;9.928;2023-02-20T12:27:59;17.10;95.90
6468;DHT22;3267;48.794;9.928;2023-02-20T12:30:57;17.20;95.20
6468;DHT22;3267;48.794;9.928;2023-02-20T12:33:56;17.20;96.70
6468;DHT22;3267;48.794;9.928;2023-02-20T12:37:02;17.20;95.40
6468;DHT22;3267;48.794;9.928;2023-02-20T12:40:02;17.70;96.30
6468;DHT22;3267;48.794;9.928;2023-02-20T12:42:51;17.30;94.60
6468;DHT22;3267;48.794;9.928;2023-02-20T12:45:31;17.20;94.50
6468;DHT22;3267;48.794;9.928;2023-02-20T12:48:14;17.30;94.70
6468;DHT22;3267;48.794;9.928;2023-02-20T12:53:35;17.30;94.30
6468;DHT22;3267;48.794;9.928;2023-02-20T12:56:31;17.30;94.20
6468;DHT22;3267;48.794;9.928;2023-02-20T12:59:26;17.70;93.90
6468;DHT22;3267;48.794;9.928;2023-02-20T13:01:58;17.30;93.60
6468;DHT22;3267;48.794;9.928;2023-02-20T13:04:37;17.30;92.90
6468;DHT22;3267;48.794;9.928;2023-02-20T13:07:13;17.40;93.60
6468;DHT22;3267;48.794;9.928;2023-02-20T13:09:52;18.50;93.40
6468;DHT22;3267;48.794;9.928;2023-02-20T13:12:24;17.40;92.20
6468;DHT22;3267;48.794;9.928;2023-02-20T13:20:29;17.50;92.20
6468;DHT22;3267;48.794;9.928;2023-02-20T13:23:44;17.50;91.50
6468;DHT22;3267;48.794;9.928;2023-02-20T13:25:46;18.20;91.90
6468;DHT22;3267;48.794;9.928;2023-02-20T13:28:22;19.10;92.50
6468;DHT22;3267;48.794;9.928;2023-02-20T13:31:07;17.70;90.80
6468;DHT22;3267;48.794;9.928;2023-02-20T13:33:34;17.80;90.40
6468;DHT22;3267;48.794;9.928;2023-02-20T13:36:02;19.70;91.20
6468;DHT22;3267;48.794;9.928;2023-02-20T13:38:28;18.00;90.60
6468;DHT22;3267;48.794;9.928;2023-02-20T13:48:52;18.30;89.90
6468;DHT22;3267;48.794;9.928;2023-02-20T13:56:52;18.60;86.90
6468;DHT22;3267;48.794;9.928;2023-02-20T13:59:21;19.00;90.20
6468;DHT22;3267;48.794;9.928;2023-02-20T14:01:54;19.10;87.00
6468;DHT22;3267;48.794;9.928;2023-02-20T14:04:22;21.00;89.50
6468;DHT22;3267;48.794;9.928;2023-02-20T14:06:52;19.20;87.50
6468;DHT22;3267;48.794;9.928;2023-02-20T14:09:24;19.50;85.70
6468;DHT22;3267;48.794;9.928;2023-02-20T14:12:02;19.60;85.70
6468;DHT22;3267;48.794;9.928;2023-02-20T14:14:33;20.80;86.70
6468;DHT22;3267;48.794;9.928;2023-02-20T14:17:04;20.00;85.40
6468;DHT22;3267;48.794;9.928;2023-02-20T14:19:31;20.30;85.50
6468;DHT22;3267;48.794;9.928;2023-02-20T14:22:13;20.60;84.00
6468;DHT22;3267;48.794;9.928;2023-02-20T14:24:45;21.40;86.80
6468;DHT22;3267;48.794;9.928;2023-02-20T14:27:29;22.80;84.10
6468;DHT22;3267;48.794;9.928;2023-02-20T14:30:22;21.40;81.70
6468;DHT22;3267;48.794;9.928;2023-02-20T14:32:50;21.60;83.40
6468;DHT22;3267;48.794;9.928;2023-02-20T14:40:57;22.10;82.00
6468;DHT22;3267;48.794;9.928;2023-02-20T14:43:25;22.30;81.10
6468;DHT22;3267;48.794;9.928;2023-02-20T14:46:04;22.40;78.20
6468;DHT22;3267;48.794;9.928;2023-02-20T14:48:33;22.40;80.70
6468;DHT22;3267;48.794;9.928;2023-02-20T14:51:14;24.60;80.60
6468;DHT22;3267;48.794;9.928;2023-02-20T14:53:44;22.20;80.20
6468;DHT22;3267;48.794;9.928;2023-02-20T14:56:20;22.10;79.00
6468;DHT22;3267;48.794;9.928;2023-02-20T14:58:46;23.20;78.90
6468;DHT22;3267;48.794;9.928;2023-02-20T15:01:35;23.50;79.00
6468;DHT22;3267;48.794;9.928;2023-02-20T15:04:15;22.20;78.20
6468;DHT22;3267;48.794;9.928;2023-02-20T15:06:43;22.10;76.50
6468;DHT22;3267;48.794;9.928;2023-02-20T15:09:10;21.70;77.70
6468;DHT22;3267;48.794;9.928;2023-02-20T15:11:48;22.00;79.70
6468;DHT22;3267;48.794;9.928;2023-02-20T15:14:24;21.10;79.50
6468;DHT22;3267;48.794;9.928;2023-02-20T15:17:26;20.70;80.40
6468;DHT22;3267;48.794;9.928;2023-02-20T15:19:52;20.30;83.00
6468;DHT22;3267;48.794;9.928;2023-02-20T15:24:52;19.70;79.80
6468;DHT22;3267;48.794;9.928;2023-02-20T15:27:20;19.60;81.40
6468;DHT22;3267;48.794;9.928;2023-02-20T15:30:09;19.30;82.20
6468;DHT22;3267;48.794;9.928;2023-02-20T15:32:39;19.10;83.40
6468;DHT22;3267;48.794;9.928;2023-02-20T15:35:05;20.70;85.40
6468;DHT22;3267;48.794;9.928;2023-02-20T15:37:32;18.80;83.00
6468;DHT22;3267;48.794;9.928;2023-02-20T15:42:41;18.50;85.00
6468;DHT22;3267;48.794;9.928;2023-02-20T15:45:07;18.40;82.90
6468;DHT22;3267;48.794;9.928;2023-02-20T15:47:33;18.30;82.70
6468;DHT22;3267;48.794;9.928;2023-02-20T15:49:59;18.20;83.40
6468;DHT22;3267;48.794;9.928;2023-02-20T15:52:25;19.60;85.90
6468;DHT22;3267;48.794;9.928;2023-02-20T15:54:54;18.10;83.80
6468;DHT22;3267;48.794;9.928;2023-02-20T15:57:20;18.00;84.50
6468;DHT22;3267;48.794;9.928;2023-02-20T15:59:46;18.00;85.30
6468;DHT22;3267;48.794;9.928;2023-02-20T16:02:17;17.90;84.30
6468;DHT22;3267;48.794;9.928;2023-02-20T16:04:46;20.40;87.10
6468;DHT22;3267;48.794;9.928;2023-02-20T16:07:13;17.70;83.10
6468;DHT22;3267;48.794;9.928;2023-02-20T16:09:38;17.60;83.90
6468;DHT22;3267;48.794;9.928;2023-02-20T16:12:05;17.60;84.00
6468;DHT22;3267;48.794;9.928;2023-02-20T16:14:30;17.50;80.60
6468;DHT22;3267;48.794;9.928;2023-02-20T16:16:56;19.60;84.90
6468;DHT22;3267;48.794;9.928;2023-02-20T16:19:23;17.40;80.40
6468;DHT22;3267;48.794;9.928;2023-02-20T16:21:49;17.20;80.90
6468;DHT22;3267;48.794;9.928;2023-02-20T16:24:15;17.10;81.60
6468;DHT22;3267;48.794;9.928;2023-02-20T16:26:43;17.00;80.80
6468;DHT22;3267;48.794;9.928;2023-02-20T16:29:21;19.00;82.30
6468;DHT22;3267;48.794;9.928;2023-02-20T16:34:19;16.70;80.60
6468;DHT22;3267;48.794;9.928;2023-02-20T16:36:45;14.20;79.60
6468;DHT22;3267;48.794;9.928;2023-02-20T16:39:10;16.60;81.40
6468;DHT22;3267;48.794;9.928;2023-02-20T16:41:36;17.50;81.60
6468;DHT22;3267;48.794;9.928;2023-02-20T16:44:13;16.40;80.40
6468;DHT22;3267;48.794;9.928;2023-02-20T16:46:39;16.30;81.20
6468;DHT22;3267;48.794;9.928;2023-02-20T16:49:05;16.20;81.40
6468;DHT22;3267;48.794;9.928;2023-02-20T16:51:30;16.30;84.20
6468;DHT22;3267;48.794;9.928;2023-02-20T16:53:57;16.20;81.10
6468;DHT22;3267;48.794;9.928;2023-02-20T16:56:22;17.20;82.80
6468;DHT22;3267;48.794;9.928;2023-02-20T16:58:48;16.10;85.80
6468;DHT22;3267;48.794;9.928;2023-02-20T17:01:14;16.30;89.70
6468;DHT22;3267;48.794;9.928;2023-02-20T17:03:39;16.30;90.80
6468;DHT22;3267;48.794;9.928;2023-02-20T17:06:05;18.50;93.20
6468;DHT22;3267;48.794;9.928;2023-02-20T17:08:31;16.80;92.80
6468;DHT22;3267;48.794;9.928;2023-02-20T17:10:56;19.50;92.90
6468;DHT22;3267;48.794;9.928;2023-02-20T17:13:22;18.10;92.60
6468;DHT22;3267;48.794;9.928;2023-02-20T17:15:48;17.30;91.60
6468;DHT22;3267;48.794;9.928;2023-02-20T17:18:14;17.20;92.60
6468;DHT22;3267;48.794;9.928;2023-02-20T17:20:40;17.00;92.10
6468;DHT22;3267;48.794;9.928;2023-02-20T17:23:05;17.00;91.90
6468;DHT22;3267;48.794;9.928;2023-02-20T17:25:32;16.80;91.80
6468;DHT22;3267;48.794;9.928;2023-02-20T17:27:59;16.90;92.00
6468;DHT22;3267;48.794;9.928;2023-02-20T17:30:24;17.20;91.90
6468;DHT22;3267;48.794;9.928;2023-02-20T17:32:50;16.50;90.90
6468;DHT22;3267;48.794;9.928;2023-02-20T17:35:19;16.30;93.10
6468;DHT22;3267;48.794;9.928;2023-02-20T17:37:44;16.20;90.50
6468;DHT22;3267;48.794;9.928;2023-02-20T17:40:11;16.20;89.40
6468;DHT22;3267;48.794;9.928;2023-02-20T17:42:37;15.90;90.00
6468;DHT22;3267;48.794;9.928;2023-02-20T17:45:03;16.70;89.80
6468;DHT22;3267;48.794;9.928;2023-02-20T17:47:28;15.60;89.50
6468;DHT22;3267;48.794;9.928;2023-02-20T17:49:55;15.80;91.20
6468;DHT22;3267;48.794;9.928;2023-02-20T17:52:21;16.80;92.60
6468;DHT22;3267;48.794;9.928;2023-02-20T17:54:49;15.80;90.50
6468;DHT22;3267;48.794;9.928;2023-02-20T17:57:17;16.60;91.80
6468;DHT22;3267;48.794;9.928;2023-02-20T17:59:46;15.70;90.90
6468;DHT22;3267;48.794;9.928;2023-02-20T18:02:14;15.70;92.10
6468;DHT22;3267;48.794;9.928;2023-02-20T18:04:41;17.40;92.40
6468;DHT22;3267;48.794;9.928;2023-02-20T18:07:09;15.70;91.30
6468;DHT22;3267;48.794;9.928;2023-02-20T18:09:35;16.80;92.30
6468;DHT22;3267;48.794;9.928;2023-02-20T18:12:01;15.70;92.20
6468;DHT22;3267;48.794;9.928;2023-02-20T18:14:27;15.70;92.80
6468;DHT22;3267;48.794;9.928;2023-02-20T18:16:54;16.20;93.50
6468;DHT22;3267;48.794;9.928;2023-02-20T18:19:19;15.70;91.90
6468;DHT22;3267;48.794;9.928;2023-02-20T18:21:46;15.60;91.70
6468;DHT22;3267;48.794;9.928;2023-02-20T18:24:18;15.60;91.30
6468;DHT22;3267;48.794;9.928;2023-02-20T18:26:44;18.10;92.90
6468;DHT22;3267;48.794;9.928;2023-02-20T18:29:09;15.40;91.60
6468;DHT22;3267;48.794;9.928;2023-02-20T18:31:35;15.30;91.00
6468;DHT22;3267;48.794;9.928;2023-02-20T18:34:01;15.20;91.50
6468;DHT22;3267;48.794;9.928;2023-02-20T18:36:27;15.10;91.00
6468;DHT22;3267;48.794;9.928;2023-02-20T18:38:55;15.10;91.00
6468;DHT22;3267;48.794;9.928;2023-02-20T18:41:20;17.00;92.50
6468;DHT22;3267;48.794;9.928;2023-02-20T18:43:46;15.40;91.40
6468;DHT22;3267;48.794;9.928;2023-02-20T18:46:22;16.40;91.70
6468;DHT22;3267;48.794;9.928;2023-02-20T18:48:48;15.00;90.90
6468;DHT22;3267;48.794;9.928;2023-02-20T18:51:13;17.20;90.90
6468;DHT22;3267;48.794;9.928;2023-02-20T18:53:39;15.10;92.30
6468;DHT22;3267;48.794;9.928;2023-02-20T18:56:09;15.60;91.70
6468;DHT22;3267;48.794;9.928;2023-02-20T18:58:34;15.00;91.30
6468;DHT22;3267;48.794;9.928;2023-02-20T19:01:00;15.40;90.70
6468;DHT22;3267;48.794;9.928;2023-02-20T19:03:26;14.80;89.40
6468;DHT22;3267;48.794;9.928;2023-02-20T19:05:51;15.20;89.30
6468;DHT22;3267;48.794;9.928;2023-02-20T19:08:17;14.50;88.40
6468;DHT22;3267;48.794;9.928;2023-02-20T19:10:43;14.70;88.50
6468;DHT22;3267;48.794;9.928;2023-02-20T19:13:08;14.40;88.50
6468;DHT22;3267;48.794;9.928;2023-02-20T19:15:34;16.90;90.20
6468;DHT22;3267;48.794;9.928;2023-02-20T19:17:59;14.10;88.00
6468;DHT22;3267;48.794;9.928;2023-02-20T19:20:27;14.00;87.90
6468;DHT22;3267;48.794;9.928;2023-02-20T19:22:54;13.90;87.80
6468;DHT22;3267;48.794;9.928;2023-02-20T19:25:20;14.00;90.40
6468;DHT22;3267;48.794;9.928;2023-02-20T19:27:46;13.90;87.60
6468;DHT22;3267;48.794;9.928;2023-02-20T19:30:12;14.30;90.10
6468;DHT22;3267;48.794;9.928;2023-02-20T19:32:38;14.20;88.50
6468;DHT22;3267;48.794;9.928;2023-02-20T19:35:04;13.70;88.80
6468;DHT22;3267;48.794;9.928;2023-02-20T19:37:29;13.70;89.70
6468;DHT22;3267;48.794;9.928;2023-02-20T19:39:55;15.20;91.00
6468;DHT22;3267;48.794;9.928;2023-02-20T19:42:21;13.80;90.10
6468;DHT22;3267;48.794;9.928;2023-02-20T19:44:46;13.70;88.50
6468;DHT22;3267;48.794;9.928;2023-02-20T19:47:12;13.60;88.00
6468;DHT22;3267;48.794;9.928;2023-02-20T19:49:44;14.60;90.90
6468;DHT22;3267;48.794;9.928;2023-02-20T19:52:10;13.70;90.90
6468;DHT22;3267;48.794;9.928;2023-02-20T19:54:36;13.60;89.10
6468;DHT22;3267;48.794;9.928;2023-02-20T19:57:02;15.90;90.40
6468;DHT22;3267;48.794;9.928;2023-02-20T19:59:29;13.50;88.90
6468;DHT22;3267;48.794;9.928;2023-02-20T20:01:59;15.30;90.30
6468;DHT22;3267;48.794;9.928;2023-02-20T20:04:26;13.60;93.40
6468;DHT22;3267;48.794;9.928;2023-02-20T20:06:53;13.50;88.80
6468;DHT22;3267;48.794;9.928;2023-02-20T20:09:20;13.60;88.90
6468;DHT22;3267;48.794;9.928;2023-02-20T20:11:46;13.30;88.70
6468;DHT22;3267;48.794;9.928;2023-02-20T20:14:12;13.30;88.00
6468;DHT22;3267;48.794;9.928;2023-02-20T20:16:38;13.20;88.60
6468;DHT22;3267;48.794;9.928;2023-02-20T20:19:08;13.20;88.30
6468;DHT22;3267;48.794;9.928;2023-02-20T20:21:35;13.30;89.70
6468;DHT22;3267;48.794;9.928;2023-02-20T20:24:01;14.00;90.00
6468;DHT22;3267;48.794;9.928;2023-02-20T20:26:29;13.20;88.50
6468;DHT22;3267;48.794;9.928;2023-02-20T20:28:56;13.40;88.80
6468;DHT22;3267;48.794;9.928;2023-02-20T20:31:24;13.10;88.10
6468;DHT22;3267;48.794;9.928;2023-02-20T20:33:50;13.90;90.20
6468;DHT22;3267;48.794;9.928;2023-02-20T20:36:16;13.10;88.40
6468;DHT22;3267;48.794;9.928;2023-02-20T20:38:42;13.00;89.10
6468;DHT22;3267;48.794;9.928;2023-02-20T20:41:08;14.90;90.00
6468;DHT22;3267;48.794;9.928;2023-02-20T20:43:35;15.30;89.60
6468;DHT22;3267;48.794;9.928;2023-02-20T20:46:01;15.20;89.30
6468;DHT22;3267;48.794;9.928;2023-02-20T20:48:27;12.80;86.40
6468;DHT22;3267;48.794;9.928;2023-02-20T20:50:53;12.90;88.00
6468;DHT22;3267;48.794;9.928;2023-02-20T20:53:19;14.10;89.80
6468;DHT22;3267;48.794;9.928;2023-02-20T20:55:45;12.80;86.20
6468;DHT22;3267;48.794;9.928;2023-02-20T20:58:10;15.40;89.00
6468;DHT22;3267;48.794;9.928;2023-02-20T21:00:36;12.70;85.10
6468;DHT22;3267;48.794;9.928;2023-02-20T21:03:04;12.70;84.30
6468;DHT22;3267;48.794;9.928;2023-02-20T21:05:32;12.60;84.30
6468;DHT22;3267;48.794;9.928;2023-02-20T21:07:58;12.60;84.30
6468;DHT22;3267;48.794;9.928;2023-02-20T21:10:25;12.60;83.60
6468;DHT22;3267;48.794;9.928;2023-02-20T21:12:51;12.40;82.80
6468;DHT22;3267;48.794;9.928;2023-02-20T21:15:18;12.80;82.10
6468;DHT22;3267;48.794;9.928;2023-02-20T21:17:45;12.30;81.00
6468;DHT22;3267;48.794;9.928;2023-02-20T21:20:23;13.70;83.50
6468;DHT22;3267;48.794;9.928;2023-02-20T21:22:49;12.20;81.40
6468;DHT22;3267;48.794;9.928;2023-02-20T21:25:20;12.00;80.60
6468;DHT22;3267;48.794;9.928;2023-02-20T21:27:47;12.10;81.20
6468;DHT22;3267;48.794;9.928;2023-02-20T21:30:13;13.40;82.80
6468;DHT22;3267;48.794;9.928;2023-02-20T21:32:39;11.90;80.00
6468;DHT22;3267;48.794;9.928;2023-02-20T21:35:05;11.80;80.40
6468;DHT22;3267;48.794;9.928;2023-02-20T21:37:31;11.80;79.60
6468;DHT22;3267;48.794;9.928;2023-02-20T21:39:57;11.80;79.30
6468;DHT22;3267;48.794;9.928;2023-02-20T21:42:22;11.80;78.90
6468;DHT22;3267;48.794;9.928;2023-02-20T21:45:09;11.70;79.00
6468;DHT22;3267;48.794;9.928;2023-02-20T21:54:58;11.40;78.90
6468;DHT22;3267;48.794;9.928;2023-02-20T21:57:24;11.40;79.00
6468;DHT22;3267;48.794;9.928;2023-02-20T21:59:50;11.20;78.00
6468;DHT22;3267;48.794;9.928;2023-02-20T22:02:18;11.20;78.10
6468;DHT22;3267;48.794;9.928;2023-02-20T22:04:44;11.30;78.60
6468;DHT22;3267;48.794;9.928;2023-02-20T22:07:09;11.20;78.80
6468;DHT22;3267;48.794;9.928;2023-02-20T22:09:54;11.20;78.10
6468;DHT22;3267;48.794;9.928;2023-02-20T22:12:38;11.30;78.40
6468;DHT22;3267;48.794;9.928;2023-02-20T22:15:23;12.60;79.40
6468;DHT22;3267;48.794;9.928;2023-02-20T22:18:07;11.50;78.60
6468;DHT22;3267;48.794;9.928;2023-02-20T22:20:51;11.10;78.70
6468;DHT22;3267;48.794;9.928;2023-02-20T22:23:36;11.20;77.70
6468;DHT22;3267;48.794;9.928;2023-02-20T22:26:20;11.20;78.10
6468;DHT22;3267;48.794;9.928;2023-02-20T22:29:05;11.30;78.60
